sensor_id;sensor_type;location;lat;lon;timestamp;pressure;altitude;pressure_sealevel;temperature;humidity
69035;BME280;56091;55.756;37.412;2023-03-03T00:04:15;97579.06;;;-1.69;87.44
69035;BME280;56091;55.756;37.412;2023-03-03T00:09:16;97590.19;;;-1.61;87.14
69035;BME280;56091;55.756;37.412;2023-03-03T00:14:21;97580.56;;;-1.55;86.73
69035;BME280;56091;55.756;37.412;2023-03-03T00:19:23;97581.31;;;-1.48;86.11
69035;BME280;56091;55.756;37.412;2023-03-03T00:24:34;97583.47;;;-1.38;86.26
69035;BME280;56091;55.756;37.412;2023-03-03T00:29:39;97559.72;;;-1.45;85.98
69035;BME280;56091;55.756;37.412;2023-03-03T00:34:42;97566.31;;;-1.35;85.93
69035;BME280;56091;55.756;37.412;2023-03-03T00:39:43;97561.47;;;-1.39;85.85
69035;BME280;56091;55.756;37.412;2023-03-03T00:44:57;97560.63;;;-1.32;85.53
69035;BME280;56091;55.756;37.412;2023-03-03T00:55:13;97536.13;;;-1.28;85.62
69035;BME280;56091;55.756;37.412;2023-03-03T01:00:14;97539.00;;;-1.29;85.87
69035;BME280;56091;55.756;37.412;2023-03-03T01:05:16;97513.63;;;-1.37;86.91
69035;BME280;56091;55.756;37.412;2023-03-03T01:10:20;97523.41;;;-1.38;88.89
69035;BME280;56091;55.756;37.412;2023-03-03T01:15:20;97515.53;;;-1.44;90.60
69035;BME280;56091;55.756;37.412;2023-03-03T01:20:21;97517.00;;;-1.48;90.59
69035;BME280;56091;55.756;37.412;2023-03-03T01:25:22;97519.44;;;-1.47;90.56
69035;BME280;56091;55.756;37.412;2023-03-03T01:30:23;97496.84;;;-1.61;90.55
69035;BME280;56091;55.756;37.412;2023-03-03T01:35:27;97518.56;;;-1.41;90.28
69035;BME280;56091;55.756;37.412;2023-03-03T01:40:32;97497.69;;;-1.49;90.24
69035;BME280;56091;55.756;37.412;2023-03-03T01:51:18;97514.97;;;-1.28;89.70
69035;BME280;56091;55.756;37.412;2023-03-03T01:56:20;97490.50;;;-1.42;89.30
69035;BME280;56091;55.756;37.412;2023-03-03T02:01:23;97504.97;;;-1.26;89.42
69035;BME280;56091;55.756;37.412;2023-03-03T02:06:30;97495.19;;;-1.25;88.90
69035;BME280;56091;55.756;37.412;2023-03-03T02:11:35;97489.88;;;-1.25;89.02
69035;BME280;56091;55.756;37.412;2023-03-03T02:16:36;97487.03;;;-1.24;88.67
69035;BME280;56091;55.756;37.412;2023-03-03T02:21:41;97469.91;;;-1.21;89.17
69035;BME280;56091;55.756;37.412;2023-03-03T02:26:46;97450.28;;;-1.32;90.93
69035;BME280;56091;55.756;37.412;2023-03-03T02:31:47;97470.88;;;-1.34;91.54
69035;BME280;56091;55.756;37.412;2023-03-03T02:36:48;97436.44;;;-1.46;91.29
69035;BME280;56091;55.756;37.412;2023-03-03T02:42:19;97439.34;;;-1.35;91.01
69035;BME280;56091;55.756;37.412;2023-03-03T02:47:26;97442.25;;;-1.25;90.57
69035;BME280;56091;55.756;37.412;2023-03-03T02:52:29;97438.97;;;-1.21;90.22
69035;BME280;56091;55.756;37.412;2023-03-03T02:57:30;97442.19;;;-1.19;90.20
69035;BME280;56091;55.756;37.412;2023-03-03T03:02:31;97444.41;;;-1.15;90.71
69035;BME280;56091;55.756;37.412;2023-03-03T03:07:33;97411.78;;;-1.28;90.77
69035;BME280;56091;55.756;37.412;2023-03-03T03:12:34;97435.88;;;-1.17;90.67
69035;BME280;56091;55.756;37.412;2023-03-03T03:17:37;97422.41;;;-1.16;90.69
69035;BME280;56091;55.756;37.412;2023-03-03T03:22:41;97426.53;;;-1.20;90.71
69035;BME280;56091;55.756;37.412;2023-03-03T03:27:43;97420.06;;;-1.24;90.77
69035;BME280;56091;55.756;37.412;2023-03-03T03:32:44;97429.03;;;-1.25;91.07
69035;BME280;56091;55.756;37.412;2023-03-03T03:37:48;97406.59;;;-1.34;91.74
69035;BME280;56091;55.756;37.412;2023-03-03T03:42:49;97407.03;;;-1.38;91.39
69035;BME280;56091;55.756;37.412;2023-03-03T03:47:50;97408.78;;;-1.31;90.93
69035;BME280;56091;55.756;37.412;2023-03-03T03:52:52;97408.56;;;-1.30;90.93
69035;BME280;56091;55.756;37.412;2023-03-03T03:57:54;97408.13;;;-1.27;89.83
69035;BME280;56091;55.756;37.412;2023-03-03T04:02:55;97370.69;;;-1.42;89.92
69035;BME280;56091;55.756;37.412;2023-03-03T04:07:57;97384.97;;;-1.31;90.36
69035;BME280;56091;55.756;37.412;2023-03-03T04:12:58;97382.84;;;-1.41;90.87
69035;BME280;56091;55.756;37.412;2023-03-03T04:17:59;97383.91;;;-1.42;90.75
69035;BME280;56091;55.756;37.412;2023-03-03T04:23:01;97394.38;;;-1.35;90.59
69035;BME280;56091;55.756;37.412;2023-03-03T04:28:04;97390.00;;;-1.42;90.27
69035;BME280;56091;55.756;37.412;2023-03-03T04:33:09;97403.00;;;-1.40;90.65
69035;BME280;56091;55.756;37.412;2023-03-03T04:38:12;97392.16;;;-1.39;90.82
69035;BME280;56091;55.756;37.412;2023-03-03T04:43:14;97387.50;;;-1.36;90.31
69035;BME280;56091;55.756;37.412;2023-03-03T04:48:15;97394.97;;;-1.33;90.32
69035;BME280;56091;55.756;37.412;2023-03-03T04:53:16;97388.66;;;-1.32;90.04
69035;BME280;56091;55.756;37.412;2023-03-03T04:58:19;97391.59;;;-1.41;89.83
69035;BME280;56091;55.756;37.412;2023-03-03T05:03:20;97389.31;;;-1.37;89.48
69035;BME280;56091;55.756;37.412;2023-03-03T05:08:23;97367.78;;;-1.41;89.13
69035;BME280;56091;55.756;37.412;2023-03-03T05:13:25;97408.78;;;-1.31;88.77
69035;BME280;56091;55.756;37.412;2023-03-03T05:18:26;97382.69;;;-1.28;88.53
69035;BME280;56091;55.756;37.412;2023-03-03T05:23:28;97397.06;;;-1.24;88.52
69035;BME280;56091;55.756;37.412;2023-03-03T05:28:29;97401.41;;;-1.29;87.76
69035;BME280;56091;55.756;37.412;2023-03-03T05:33:29;97399.72;;;-1.24;87.58
69035;BME280;56091;55.756;37.412;2023-03-03T05:38:30;97404.56;;;-1.21;87.31
69035;BME280;56091;55.756;37.412;2023-03-03T05:43:31;97394.69;;;-1.13;86.82
69035;BME280;56091;55.756;37.412;2023-03-03T05:48:32;97410.44;;;-1.19;86.15
69035;BME280;56091;55.756;37.412;2023-03-03T05:53:33;97387.91;;;-1.09;86.05
69035;BME280;56091;55.756;37.412;2023-03-03T05:58:40;97395.66;;;-0.96;84.87
69035;BME280;56091;55.756;37.412;2023-03-03T06:03:40;97412.81;;;-0.99;84.65
69035;BME280;56091;55.756;37.412;2023-03-03T06:08:41;97412.22;;;-1.01;84.58
69035;BME280;56091;55.756;37.412;2023-03-03T06:13:42;97426.06;;;-0.99;84.39
69035;BME280;56091;55.756;37.412;2023-03-03T06:18:43;97402.47;;;-0.88;83.48
69035;BME280;56091;55.756;37.412;2023-03-03T06:23:47;97418.97;;;-0.63;82.74
69035;BME280;56091;55.756;37.412;2023-03-03T06:28:47;97408.63;;;-0.52;82.49
69035;BME280;56091;55.756;37.412;2023-03-03T06:33:49;97414.06;;;-0.47;82.10
69035;BME280;56091;55.756;37.412;2023-03-03T06:38:51;97415.66;;;-0.46;81.70
69035;BME280;56091;55.756;37.412;2023-03-03T06:43:52;97413.81;;;-0.46;80.81
69035;BME280;56091;55.756;37.412;2023-03-03T06:48:52;97413.16;;;-0.41;80.37
69035;BME280;56091;55.756;37.412;2023-03-03T06:53:55;97413.38;;;-0.54;81.04
69035;BME280;56091;55.756;37.412;2023-03-03T06:58:57;97418.09;;;-0.56;81.66
69035;BME280;56091;55.756;37.412;2023-03-03T07:03:59;97415.88;;;-0.60;81.60
69035;BME280;56091;55.756;37.412;2023-03-03T07:09:00;97409.78;;;-0.60;81.34
69035;BME280;56091;55.756;37.412;2023-03-03T07:14:01;97404.47;;;-0.72;80.71
69035;BME280;56091;55.756;37.412;2023-03-03T07:19:02;97426.25;;;-0.58;80.31
69035;BME280;56091;55.756;37.412;2023-03-03T07:24:27;97411.84;;;-0.62;79.86
69035;BME280;56091;55.756;37.412;2023-03-03T07:29:29;97404.63;;;-0.43;78.79
69035;BME280;56091;55.756;37.412;2023-03-03T07:35:16;97428.69;;;-0.33;78.48
69035;BME280;56091;55.756;37.412;2023-03-03T07:45:35;97452.88;;;-0.53;79.30
69035;BME280;56091;55.756;37.412;2023-03-03T07:50:40;97443.44;;;-0.49;79.42
69035;BME280;56091;55.756;37.412;2023-03-03T07:55:41;97432.63;;;-0.24;78.26
69035;BME280;56091;55.756;37.412;2023-03-03T08:05:43;97433.88;;;0.21;75.25
69035;BME280;56091;55.756;37.412;2023-03-03T08:10:51;97407.47;;;0.14;75.38
69035;BME280;56091;55.756;37.412;2023-03-03T08:21:19;97420.25;;;0.06;76.42
69035;BME280;56091;55.756;37.412;2023-03-03T08:26:21;97443.09;;;0.18;76.10
69035;BME280;56091;55.756;37.412;2023-03-03T08:31:22;97435.34;;;0.17;77.03
69035;BME280;56091;55.756;37.412;2023-03-03T08:36:23;97457.28;;;0.12;77.49
69035;BME280;56091;55.756;37.412;2023-03-03T08:41:24;97442.06;;;0.08;78.10
69035;BME280;56091;55.756;37.412;2023-03-03T08:46:25;97454.16;;;-0.08;79.15
69035;BME280;56091;55.756;37.412;2023-03-03T08:51:26;97454.06;;;-0.02;79.56
69035;BME280;56091;55.756;37.412;2023-03-03T08:56:27;97454.06;;;0.10;79.48
69035;BME280;56091;55.756;37.412;2023-03-03T09:01:28;97446.88;;;0.23;78.53
69035;BME280;56091;55.756;37.412;2023-03-03T09:06:28;97467.44;;;0.15;79.49
69035;BME280;56091;55.756;37.412;2023-03-03T09:11:29;97454.25;;;0.44;78.68
69035;BME280;56091;55.756;37.412;2023-03-03T09:16:37;97447.97;;;1.03;78.07
69035;BME280;56091;55.756;37.412;2023-03-03T09:21:39;97455.31;;;0.72;77.60
69035;BME280;56091;55.756;37.412;2023-03-03T09:26:46;97455.91;;;0.62;78.01
69035;BME280;56091;55.756;37.412;2023-03-03T09:31:53;97471.44;;;0.30;78.37
69035;BME280;56091;55.756;37.412;2023-03-03T09:36:55;97461.41;;;0.20;78.25
69035;BME280;56091;55.756;37.412;2023-03-03T09:42:15;97466.13;;;0.30;77.52
69035;BME280;56091;55.756;37.412;2023-03-03T09:47:34;97456.97;;;0.49;76.64
69035;BME280;56091;55.756;37.412;2023-03-03T09:58:08;97459.56;;;1.13;75.16
69035;BME280;56091;55.756;37.412;2023-03-03T10:14:23;97465.97;;;1.29;72.86
69035;BME280;56091;55.756;37.412;2023-03-03T10:24:51;97431.88;;;1.09;74.06
69035;BME280;56091;55.756;37.412;2023-03-03T10:40:49;97438.81;;;1.10;72.13
69035;BME280;56091;55.756;37.412;2023-03-03T10:57:10;97461.16;;;1.60;69.64
69035;BME280;56091;55.756;37.412;2023-03-03T11:07:43;97441.00;;;1.30;70.68
69035;BME280;56091;55.756;37.412;2023-03-03T11:13:20;97466.28;;;1.33;71.30
69035;BME280;56091;55.756;37.412;2023-03-03T11:24:04;97459.88;;;1.17;72.89
69035;BME280;56091;55.756;37.412;2023-03-03T11:29:53;97461.13;;;1.26;71.39
69035;BME280;56091;55.756;37.412;2023-03-03T11:35:04;97461.69;;;1.28;70.43
69035;BME280;56091;55.756;37.412;2023-03-03T11:40:23;97447.16;;;1.19;70.22
69035;BME280;56091;55.756;37.412;2023-03-03T11:45:49;97460.03;;;1.73;69.51
69035;BME280;56091;55.756;37.412;2023-03-03T11:50:59;97436.75;;;1.29;68.50
69035;BME280;56091;55.756;37.412;2023-03-03T11:56:13;97471.28;;;1.29;68.91
69035;BME280;56091;55.756;37.412;2023-03-03T12:06:52;97467.44;;;1.54;68.47
69035;BME280;56091;55.756;37.412;2023-03-03T12:22:39;97467.22;;;1.27;68.45
69035;BME280;56091;55.756;37.412;2023-03-03T12:27:49;97472.69;;;1.20;68.58
69035;BME280;56091;55.756;37.412;2023-03-03T12:54:12;97475.72;;;0.83;71.05
69035;BME280;56091;55.756;37.412;2023-03-03T13:04:40;97481.84;;;0.72;70.93
69035;BME280;56091;55.756;37.412;2023-03-03T13:15:35;97478.09;;;0.96;70.71
69035;BME280;56091;55.756;37.412;2023-03-03T13:20:48;97479.34;;;1.06;70.35
69035;BME280;56091;55.756;37.412;2023-03-03T13:25:56;97429.38;;;1.03;70.19
69035;BME280;56091;55.756;37.412;2023-03-03T13:31:14;97470.88;;;1.38;68.67
69035;BME280;56091;55.756;37.412;2023-03-03T13:36:17;97440.97;;;1.13;68.71
69035;BME280;56091;55.756;37.412;2023-03-03T13:41:44;97466.19;;;1.28;68.21
69035;BME280;56091;55.756;37.412;2023-03-03T13:46:58;97458.53;;;1.14;68.18
69035;BME280;56091;55.756;37.412;2023-03-03T13:52:04;97463.34;;;1.17;67.66
69035;BME280;56091;55.756;37.412;2023-03-03T14:13:20;97465.53;;;1.21;67.08
69035;BME280;56091;55.756;37.412;2023-03-03T14:28:50;97481.75;;;0.78;65.25
69035;BME280;56091;55.756;37.412;2023-03-03T14:39:34;97470.38;;;0.54;66.55
69035;BME280;56091;55.756;37.412;2023-03-03T14:44:53;97473.38;;;0.46;66.99
69035;BME280;56091;55.756;37.412;2023-03-03T14:49:56;97479.63;;;0.40;67.27
69035;BME280;56091;55.756;37.412;2023-03-03T14:55:04;97480.66;;;0.39;67.46
69035;BME280;56091;55.756;37.412;2023-03-03T15:05:25;97481.38;;;0.34;67.38
69035;BME280;56091;55.756;37.412;2023-03-03T15:10:29;97467.31;;;0.22;67.63
69035;BME280;56091;55.756;37.412;2023-03-03T15:15:30;97481.94;;;0.25;67.44
69035;BME280;56091;55.756;37.412;2023-03-03T15:25:57;97470.53;;;0.12;67.42
69035;BME280;56091;55.756;37.412;2023-03-03T15:31:27;97496.03;;;0.25;67.39
69035;BME280;56091;55.756;37.412;2023-03-03T15:36:59;97497.84;;;0.25;67.44
69035;BME280;56091;55.756;37.412;2023-03-03T15:42:17;97501.56;;;0.24;67.24
69035;BME280;56091;55.756;37.412;2023-03-03T16:04:12;97486.22;;;0.26;67.70
69035;BME280;56091;55.756;37.412;2023-03-03T16:09:27;97510.31;;;0.24;67.55
69035;BME280;56091;55.756;37.412;2023-03-03T16:14:39;97493.03;;;0.22;67.34
69035;BME280;56091;55.756;37.412;2023-03-03T16:20:20;97498.19;;;0.16;67.46
69035;BME280;56091;55.756;37.412;2023-03-03T16:36:20;97491.63;;;0.07;67.15
69035;BME280;56091;55.756;37.412;2023-03-03T16:41:32;97488.41;;;0.05;67.39
69035;BME280;56091;55.756;37.412;2023-03-03T16:46:44;97477.56;;;-0.05;67.77
69035;BME280;56091;55.756;37.412;2023-03-03T16:52:00;97493.69;;;0.05;67.05
69035;BME280;56091;55.756;37.412;2023-03-03T17:08:19;97475.94;;;-0.18;67.99
69035;BME280;56091;55.756;37.412;2023-03-03T17:19:16;97492.78;;;-0.12;67.87
69035;BME280;56091;55.756;37.412;2023-03-03T17:40:54;97490.34;;;-0.26;68.39
69035;BME280;56091;55.756;37.412;2023-03-03T17:46:02;97485.50;;;-0.29;68.47
69035;BME280;56091;55.756;37.412;2023-03-03T17:56:35;97488.72;;;-0.27;68.58
69035;BME280;56091;55.756;37.412;2023-03-03T18:01:55;97488.97;;;-0.28;68.76
69035;BME280;56091;55.756;37.412;2023-03-03T18:07:27;97493.09;;;-0.32;68.84
69035;BME280;56091;55.756;37.412;2023-03-03T18:23:31;97479.38;;;-0.41;68.54
69035;BME280;56091;55.756;37.412;2023-03-03T18:28:43;97480.50;;;-0.49;68.35
69035;BME280;56091;55.756;37.412;2023-03-03T18:39:13;97474.00;;;-0.65;68.29
69035;BME280;56091;55.756;37.412;2023-03-03T18:44:27;97488.88;;;-0.64;68.42
69035;BME280;56091;55.756;37.412;2023-03-03T19:00:27;97483.91;;;-1.02;69.06
69035;BME280;56091;55.756;37.412;2023-03-03T19:05:48;97495.31;;;-1.20;68.69
69035;BME280;56091;55.756;37.412;2023-03-03T19:16:04;97487.88;;;-1.42;68.88
69035;BME280;56091;55.756;37.412;2023-03-03T19:21:26;97487.91;;;-1.48;69.17
69035;BME280;56091;55.756;37.412;2023-03-03T19:26:39;97487.84;;;-1.60;69.41
69035;BME280;56091;55.756;37.412;2023-03-03T19:37:49;97489.03;;;-1.74;70.37
69035;BME280;56091;55.756;37.412;2023-03-03T19:43:19;97493.88;;;-1.71;70.50
69035;BME280;56091;55.756;37.412;2023-03-03T19:48:47;97491.81;;;-1.69;70.72
69035;BME280;56091;55.756;37.412;2023-03-03T20:15:06;97467.34;;;-1.83;72.86
69035;BME280;56091;55.756;37.412;2023-03-03T20:26:15;97451.53;;;-1.90;73.88
69035;BME280;56091;55.756;37.412;2023-03-03T20:31:31;97449.16;;;-1.91;74.50
69035;BME280;56091;55.756;37.412;2023-03-03T20:42:01;97422.63;;;-1.85;74.47
69035;BME280;56091;55.756;37.412;2023-03-03T20:57:52;97440.97;;;-1.90;74.98
69035;BME280;56091;55.756;37.412;2023-03-03T21:08:20;97429.97;;;-1.87;75.58
69035;BME280;56091;55.756;37.412;2023-03-03T21:13:52;97439.53;;;-1.86;75.60
69035;BME280;56091;55.756;37.412;2023-03-03T21:19:02;97430.41;;;-1.90;76.13
69035;BME280;56091;55.756;37.412;2023-03-03T21:24:10;97416.59;;;-1.92;76.52
69035;BME280;56091;55.756;37.412;2023-03-03T21:29:33;97423.69;;;-1.86;76.45
69035;BME280;56091;55.756;37.412;2023-03-03T21:34:40;97414.91;;;-1.86;76.62
69035;BME280;56091;55.756;37.412;2023-03-03T21:39:43;97411.09;;;-1.90;76.83
69035;BME280;56091;55.756;37.412;2023-03-03T21:44:50;97415.28;;;-1.83;76.81
69035;BME280;56091;55.756;37.412;2023-03-03T21:49:52;97403.53;;;-1.87;76.93
69035;BME280;56091;55.756;37.412;2023-03-03T21:54:53;97400.31;;;-1.89;77.13
69035;BME280;56091;55.756;37.412;2023-03-03T21:59:55;97364.94;;;-2.06;77.36
69035;BME280;56091;55.756;37.412;2023-03-03T22:04:56;97393.56;;;-1.85;77.28
69035;BME280;56091;55.756;37.412;2023-03-03T22:10:04;97385.78;;;-1.80;77.30
69035;BME280;56091;55.756;37.412;2023-03-03T22:15:07;97330.22;;;-2.10;77.00
69035;BME280;56091;55.756;37.412;2023-03-03T22:20:10;97371.03;;;-1.87;77.31
69035;BME280;56091;55.756;37.412;2023-03-03T22:25:14;97370.13;;;-1.81;77.05
69035;BME280;56091;55.756;37.412;2023-03-03T22:30:15;97369.72;;;-1.78;76.95
69035;BME280;56091;55.756;37.412;2023-03-03T22:35:16;97369.25;;;-1.75;76.74
69035;BME280;56091;55.756;37.412;2023-03-03T22:40:18;97378.44;;;-1.78;77.06
69035;BME280;56091;55.756;37.412;2023-03-03T22:45:19;97379.16;;;-1.89;77.45
69035;BME280;56091;55.756;37.412;2023-03-03T22:50:20;97387.91;;;-1.88;77.93
69035;BME280;56091;55.756;37.412;2023-03-03T22:55:21;97382.50;;;-1.93;78.06
69035;BME280;56091;55.756;37.412;2023-03-03T23:00:23;97363.00;;;-1.81;77.88
69035;BME280;56091;55.756;37.412;2023-03-03T23:05:24;97361.78;;;-1.78;77.65
69035;BME280;56091;55.756;37.412;2023-03-03T23:10:25;97352.94;;;-1.72;77.45
69035;BME280;56091;55.756;37.412;2023-03-03T23:15:26;97340.47;;;-1.83;77.63
69035;BME280;56091;55.756;37.412;2023-03-03T23:20:28;97342.59;;;-1.92;78.09
69035;BME280;56091;55.756;37.412;2023-03-03T23:25:29;97356.50;;;-1.97;78.90
69035;BME280;56091;55.756;37.412;2023-03-03T23:30:30;97357.75;;;-1.99;79.04
69035;BME280;56091;55.756;37.412;2023-03-03T23:35:31;97308.34;;;-2.17;79.11
69035;BME280;56091;55.756;37.412;2023-03-03T23:40:31;97333.28;;;-1.94;79.11
69035;BME280;56091;55.756;37.412;2023-03-03T23:45:32;97321.47;;;-1.92;78.97
69035;BME280;56091;55.756;37.412;2023-03-03T23:50:33;97314.63;;;-1.81;79.00
69035;BME280;56091;55.756;37.412;2023-03-03T23:55:36;97305.44;;;-1.79;78.82
